Hauptseite
METAR-TAF:

METAR-TAF

Flughäfen :

Koror, Babelthuap Island, Palau

Flughafen Koror

Breite: 07-22N, Länge: 134-32E, Höhe: 54 m

Beobachtung

Neuester Wetterbericht von vor 12 Minuten, um 13:53 UTC
Wind 4 kt aus Nordost
Temperatur 27°C
Luftfeuchtigkeit 84%
Luftdruck 1012 hPa
Sichtweite: 24.1 km
Aufgelockert bewölkt in der Höhe von 1600 ft
Durchbrochene Bewölkung in der Höhe von 30000 ft

METAR: PTRO 241353Z 05004KT 15SM SCT016 BKN300 27/24 A2989

Zeit: 23:05 (14:05 UTC)

Prognose

Neuester Wetterbericht von vor 2 Stunden und 45 Minuten, um 11:20 UTC
Gültige Prognose vom 24 um 12 UTC bis 25 um 12 UTC
Wind 7 kt aus Nordost
Sichtweite: 10 km
Aufgelockert bewölkt in der Höhe von 1600 ft
Durchbrochene Bewölkung in der Höhe von 12000 ft
Schauer in der Nähe

TAF: PTRO 241120Z 2412/2512 04007KT P6SM VCSH SCT016 BKN120

Wetterbeobachtungen und Prognosen von mehr als 4000 Flughäfen (METAR und TAF Bericht).

Die verfügbaren Stationen werden durch gelbe und rote Markierungen auf der Karte dargestellt.

Führen Sie die Maus auf sie, um den Namen der Station zu sehen.

Darauf klicken, um die Beobachtung von Wetterbeobachtungen und Prognosen zu sehen.

Um die Karte zu ändern : klicken Sie auf den grünen Tasten mit einem schwarzen Kreuz Zum Vergrößern, auf den grünen Button mit einem Gedankenstrich zu verkleinern, oder auf die grünen Pfeile für benachbarte Karten.


METAR-TAF: